createdAt,value
2017-12-17T00:01:24.935Z,100647.76
2017-12-17T00:03:52.391Z,100650.61
2017-12-17T00:06:19.801Z,100655.04
2017-12-17T00:08:47.218Z,100651.71
2017-12-17T00:11:14.643Z,100654.45
2017-12-17T00:13:42.068Z,100652.60
2017-12-17T00:16:09.472Z,100654.70
2017-12-17T00:18:36.916Z,100658.27
2017-12-17T00:21:04.378Z,100662.91
2017-12-17T00:23:31.799Z,100664.91
2017-12-17T00:25:59.214Z,100662.64
2017-12-17T00:28:26.656Z,100659.85
2017-12-17T00:30:54.060Z,100665.55
2017-12-17T00:33:21.743Z,100670.16
2017-12-17T00:35:49.231Z,100669.47
2017-12-17T00:38:16.645Z,100674.18
2017-12-17T00:40:44.148Z,100676.20
2017-12-17T00:43:11.588Z,100676.10
2017-12-17T00:45:38.996Z,100674.87
2017-12-17T00:48:06.407Z,100685.31
2017-12-17T00:50:33.852Z,100691.63
2017-12-17T00:53:01.267Z,100692.28
2017-12-17T00:55:28.676Z,100690.53
2017-12-17T00:57:56.135Z,100686.27
2017-12-17T01:00:23.552Z,100689.30
2017-12-17T01:02:50.961Z,100687.73
2017-12-17T01:05:18.401Z,100689.17
2017-12-17T01:07:45.827Z,100694.46
2017-12-17T01:10:13.267Z,100699.02
2017-12-17T01:12:40.700Z,100691.50
2017-12-17T01:15:08.107Z,100698.57
2017-12-17T01:17:35.520Z,100705.97
2017-12-17T01:20:02.979Z,100697.73
2017-12-17T01:22:30.392Z,100701.89
2017-12-17T01:24:57.812Z,100697.87
2017-12-17T01:27:25.231Z,100706.12
2017-12-17T01:29:52.642Z,100711.67
2017-12-17T01:32:20.047Z,100715.15
2017-12-17T01:34:47.492Z,100714.33
2017-12-17T01:37:14.908Z,100710.66
2017-12-17T01:39:42.324Z,100709.16
2017-12-17T01:42:09.768Z,100705.45
2017-12-17T01:44:37.183Z,100712.93
2017-12-17T01:47:04.696Z,100709.84
2017-12-17T01:49:32.145Z,100717.56
2017-12-17T01:51:59.555Z,100718.63
2017-12-17T01:54:26.959Z,100719.77
2017-12-17T01:56:54.488Z,100718.94
2017-12-17T01:59:21.887Z,100716.23
2017-12-17T02:01:49.315Z,100720.39
2017-12-17T02:04:16.764Z,100727.88
2017-12-17T02:06:44.175Z,100727.88
2017-12-17T02:09:11.583Z,100728.98
2017-12-17T02:11:39.144Z,100730.08
2017-12-17T02:14:06.548Z,100725.75
2017-12-17T02:16:33.963Z,100731.66
2017-12-17T02:19:01.392Z,100731.83
2017-12-17T02:21:28.807Z,100732.48
2017-12-17T02:23:56.219Z,100738.50
2017-12-17T02:26:23.644Z,100738.50
2017-12-17T02:28:51.055Z,100738.27
2017-12-17T02:31:18.456Z,100737.56
2017-12-17T02:33:45.948Z,100741.44
2017-12-17T02:36:13.360Z,100734.64
2017-12-17T02:38:40.855Z,100748.89
2017-12-17T02:41:08.308Z,100752.16
2017-12-17T02:43:35.780Z,100757.23
2017-12-17T02:46:03.198Z,100757.62
2017-12-17T02:48:30.695Z,100756.58
2017-12-17T02:50:58.115Z,100759.50
2017-12-17T02:53:25.519Z,100760.75
2017-12-17T02:55:52.943Z,100755.24
2017-12-17T02:58:20.352Z,100758.06
2017-12-17T03:00:47.758Z,100755.48
2017-12-17T03:03:15.203Z,100760.44
2017-12-17T03:05:42.607Z,100766.62
2017-12-17T03:08:10.006Z,100759.92
2017-12-17T03:10:37.463Z,100761.77
2017-12-17T03:13:04.872Z,100770.34
2017-12-17T03:15:32.272Z,100766.23
2017-12-17T03:17:59.715Z,100771.21
2017-12-17T03:20:27.114Z,100766.14
2017-12-17T03:22:54.675Z,100773.97
2017-12-17T03:25:22.145Z,100782.51
2017-12-17T03:27:49.609Z,100785.70
2017-12-17T03:30:17.003Z,100787.41
2017-12-17T03:32:44.450Z,100792.53
2017-12-17T03:35:11.897Z,100790.34
2017-12-17T03:37:39.296Z,100795.38
2017-12-17T03:40:06.783Z,100797.53
2017-12-17T03:42:34.192Z,100798.36
2017-12-17T03:45:01.697Z,100790.03
2017-12-17T03:47:29.263Z,100800.47
2017-12-17T03:49:56.675Z,100799.64
2017-12-17T03:52:24.079Z,100803.30
2017-12-17T03:54:51.527Z,100807.30
2017-12-17T03:57:19.073Z,100806.84
2017-12-17T03:59:46.472Z,100804.41
2017-12-17T04:02:13.908Z,100817.78
2017-12-17T04:04:41.315Z,100809.56
2017-12-17T04:07:08.812Z,100816.92
2017-12-17T04:09:36.254Z,100816.66
2017-12-17T04:12:03.656Z,100812.80
2017-12-17T04:14:31.080Z,100817.73
2017-12-17T04:16:58.511Z,100814.40
2017-12-17T04:19:25.918Z,100819.75
2017-12-17T04:21:53.324Z,100822.06
2017-12-17T04:24:20.767Z,100820.16
2017-12-17T04:26:48.175Z,100825.82
2017-12-17T04:29:15.608Z,100826.33
2017-12-17T04:31:43.036Z,100830.13
2017-12-17T04:34:10.522Z,100829.52
2017-12-17T04:36:37.911Z,100828.50
2017-12-17T04:39:05.358Z,100833.95
2017-12-17T04:41:32.792Z,100836.81
2017-12-17T04:44:00.201Z,100845.03
2017-12-17T04:46:27.646Z,100849.16
2017-12-17T04:48:55.058Z,100855.70
2017-12-17T04:51:22.459Z,100852.50
2017-12-17T04:53:49.913Z,100851.03
2017-12-17T04:56:17.335Z,100859.20
2017-12-17T04:58:44.793Z,100856.70
2017-12-17T05:01:12.354Z,100864.78
2017-12-17T05:03:39.798Z,100862.88
2017-12-17T05:06:07.191Z,100860.63
2017-12-17T05:08:34.611Z,100858.80
2017-12-17T05:11:02.023Z,100858.27
2017-12-17T05:13:29.527Z,100854.37
2017-12-17T05:15:56.985Z,100868.31
2017-12-17T05:18:24.378Z,100865.70
2017-12-17T05:20:51.811Z,100878.23
2017-12-17T05:23:19.240Z,100880.48
2017-12-17T05:25:46.722Z,100883.75
2017-12-17T05:28:14.139Z,100884.51
2017-12-17T05:30:41.581Z,100889.08
2017-12-17T05:33:08.984Z,100896.34
2017-12-17T05:35:36.440Z,100901.10
2017-12-17T05:38:03.876Z,100902.12
2017-12-17T05:40:31.364Z,100913.48
2017-12-17T05:42:58.820Z,100918.64
2017-12-17T05:45:26.283Z,100922.56
2017-12-17T05:47:53.675Z,100928.75
2017-12-17T05:50:21.088Z,100928.25
2017-12-17T05:52:48.973Z,100930.00
2017-12-17T05:55:16.379Z,100928.66
2017-12-17T05:57:43.783Z,100930.83
2017-12-17T06:00:11.324Z,100935.76
2017-12-17T06:02:38.775Z,100933.19
2017-12-17T06:05:06.175Z,100936.34
2017-12-17T06:07:33.713Z,100936.34
2017-12-17T06:10:01.093Z,100942.55
2017-12-17T06:12:28.497Z,100937.11
2017-12-17T06:14:55.940Z,100936.70
2017-12-17T06:17:23.342Z,100932.92
2017-12-17T06:19:50.751Z,100935.28
2017-12-17T06:22:18.232Z,100936.62
2017-12-17T06:24:45.696Z,100937.55
2017-12-17T06:27:13.099Z,100944.03
2017-12-17T06:29:40.527Z,100948.03
2017-12-17T06:32:07.937Z,100951.16
2017-12-17T06:34:35.342Z,100950.15
2017-12-17T06:37:02.976Z,100950.31
2017-12-17T06:39:30.387Z,100950.06
2017-12-17T06:41:57.835Z,100951.89
2017-12-17T06:44:25.255Z,100951.30
2017-12-17T06:46:52.667Z,100955.98
2017-12-17T06:49:20.095Z,100959.67
2017-12-17T06:51:47.544Z,100963.25
2017-12-17T06:54:14.963Z,100969.36
2017-12-17T06:56:42.399Z,100971.20
2017-12-17T06:59:09.805Z,100977.62
2017-12-17T07:01:37.211Z,100982.22
2017-12-17T07:04:04.651Z,100987.41
2017-12-17T07:06:32.066Z,100996.34
2017-12-17T07:08:59.480Z,101005.77
2017-12-17T07:11:26.931Z,101005.03
2017-12-17T07:13:54.345Z,101004.78
2017-12-17T07:16:21.773Z,101009.53
2017-12-17T07:18:49.248Z,101007.45
2017-12-17T07:21:16.655Z,101018.05
2017-12-17T07:23:44.076Z,101010.02
2017-12-17T07:26:11.619Z,101005.28
2017-12-17T07:28:39.031Z,101020.96
2017-12-17T07:31:06.443Z,101025.49
2017-12-17T07:33:33.876Z,101023.08
2017-12-17T07:36:01.324Z,101029.50
2017-12-17T07:38:28.733Z,101032.09
2017-12-17T07:40:56.176Z,101034.27
2017-12-17T07:43:23.586Z,101042.44
2017-12-17T07:45:51.004Z,101046.95
2017-12-17T07:48:18.627Z,101051.55
2017-12-17T07:50:46.347Z,101058.65
2017-12-17T07:53:13.744Z,101064.91
2017-12-17T07:55:41.193Z,101066.76
2017-12-17T07:58:08.663Z,101065.50
2017-12-17T08:00:36.509Z,101067.92
2017-12-17T08:03:03.980Z,101069.19
2017-12-17T08:05:31.403Z,101073.77
2017-12-17T08:07:58.818Z,101090.70
2017-12-17T08:10:26.283Z,101088.84
2017-12-17T08:12:53.690Z,101087.84
2017-12-17T08:15:21.105Z,101086.66
2017-12-17T08:20:22.438Z,101094.82
2017-12-17T08:22:49.861Z,101100.67
2017-12-17T08:25:17.277Z,101098.83
2017-12-17T08:27:44.727Z,101107.87
2017-12-17T08:30:12.132Z,101111.05
2017-12-17T08:32:39.693Z,101114.48
2017-12-17T08:35:07.052Z,101121.09
2017-12-17T08:37:34.484Z,101127.80
2017-12-17T08:40:01.892Z,101135.25
2017-12-17T08:42:29.350Z,101130.19
2017-12-17T08:44:56.875Z,101130.62
2017-12-17T08:47:24.368Z,101134.20
2017-12-17T08:49:51.922Z,101141.66
2017-12-17T08:52:19.387Z,101150.34
2017-12-17T08:54:46.801Z,101151.41
2017-12-17T08:57:14.312Z,101153.02
2017-12-17T08:59:41.747Z,101158.63
2017-12-17T09:02:09.161Z,101167.77
2017-12-17T09:04:36.620Z,101168.34
2017-12-17T09:07:04.012Z,101167.69
2017-12-17T09:09:31.435Z,101175.14
2017-12-17T09:11:58.865Z,101171.97
2017-12-17T09:14:26.271Z,101181.77
2017-12-17T09:16:53.685Z,101180.94
2017-12-17T09:19:21.132Z,101191.39
2017-12-17T09:21:48.600Z,101193.72
2017-12-17T09:24:16.012Z,101197.71
2017-12-17T09:26:43.441Z,101207.05
2017-12-17T09:29:10.855Z,101206.88
2017-12-17T09:31:38.263Z,101209.50
2017-12-17T09:34:05.746Z,101212.68
2017-12-17T09:36:33.226Z,101212.68
2017-12-17T09:39:00.661Z,101214.73
2017-12-17T09:41:28.245Z,101212.68
2017-12-17T09:43:55.653Z,101211.49
2017-12-17T09:46:23.059Z,101218.47
2017-12-17T09:48:50.525Z,101220.13
2017-12-17T09:51:17.996Z,101225.88
2017-12-17T09:53:45.404Z,101218.28
2017-12-17T09:56:12.904Z,101228.47
2017-12-17T09:58:40.315Z,101226.36
2017-12-17T10:01:07.730Z,101233.47
2017-12-17T10:03:35.264Z,101233.44
2017-12-17T10:06:02.672Z,101243.06
2017-12-17T10:08:30.079Z,101237.03
2017-12-17T10:10:57.523Z,101242.77
2017-12-17T10:13:24.991Z,101251.91
2017-12-17T10:15:52.409Z,101248.05
2017-12-17T10:18:19.883Z,101245.35
2017-12-17T10:20:47.316Z,101251.83
2017-12-17T10:23:14.753Z,101250.70
2017-12-17T10:25:42.200Z,101250.48
2017-12-17T10:28:09.632Z,101254.67
2017-12-17T10:30:37.045Z,101245.95
2017-12-17T10:33:04.484Z,101255.16
2017-12-17T10:35:31.919Z,101261.18
2017-12-17T10:37:59.352Z,101267.09
2017-12-17T10:40:26.794Z,101266.19
2017-12-17T10:42:54.203Z,101270.20
2017-12-17T10:45:21.623Z,101266.74
2017-12-17T10:47:49.067Z,101268.55
2017-12-17T10:50:16.495Z,101267.63
2017-12-17T10:52:43.930Z,101274.85
2017-12-17T10:55:11.483Z,101272.53
2017-12-17T10:57:38.893Z,101271.92
2017-12-17T11:00:06.396Z,101275.57
2017-12-17T11:02:33.869Z,101279.83
2017-12-17T11:05:01.271Z,101280.00
2017-12-17T11:07:28.723Z,101280.53
2017-12-17T11:09:56.131Z,101285.83
2017-12-17T11:12:23.584Z,101282.66
2017-12-17T11:14:55.940Z,101273.53
2017-12-17T11:17:23.400Z,101279.55
2017-12-17T11:19:50.799Z,101276.70
2017-12-17T11:22:18.232Z,101280.30
2017-12-17T11:24:46.008Z,101286.03
2017-12-17T11:27:13.416Z,101290.18
2017-12-17T11:29:40.867Z,101292.55
2017-12-17T11:32:08.372Z,101290.25
2017-12-17T11:34:35.791Z,101296.98
2017-12-17T11:37:03.228Z,101289.05
2017-12-17T11:39:30.644Z,101298.80
2017-12-17T11:41:58.061Z,101304.70
2017-12-17T11:44:25.492Z,101309.02
2017-12-17T11:46:52.895Z,101308.42
2017-12-17T11:49:20.304Z,101302.64
2017-12-17T11:51:47.757Z,101308.91
2017-12-17T11:54:15.205Z,101310.84
2017-12-17T11:56:42.621Z,101309.56
2017-12-17T11:59:10.061Z,101310.51
2017-12-17T12:01:37.469Z,101310.84
2017-12-17T12:04:04.875Z,101318.27
2017-12-17T12:06:32.383Z,101317.83
2017-12-17T12:08:59.851Z,101325.03
2017-12-17T12:11:27.319Z,101320.20
2017-12-17T12:13:54.761Z,101322.64
2017-12-17T12:16:22.173Z,101328.16
2017-12-17T12:18:49.592Z,101328.41
2017-12-17T12:21:17.025Z,101332.92
2017-12-17T12:23:44.485Z,101336.34
2017-12-17T12:26:11.891Z,101344.91
2017-12-17T12:28:39.427Z,101347.70
2017-12-17T12:31:06.846Z,101350.97
2017-12-17T12:33:34.247Z,101346.06
2017-12-17T12:36:01.676Z,101351.09
2017-12-17T12:38:29.121Z,101362.50
2017-12-17T12:40:56.528Z,101359.36
2017-12-17T12:43:24.046Z,101357.55
2017-12-17T12:45:51.506Z,101367.08
2017-12-17T12:48:18.912Z,101369.43
2017-12-17T12:50:46.323Z,101371.69
2017-12-17T12:53:13.766Z,101372.02
2017-12-17T12:55:41.183Z,101373.23
2017-12-17T12:58:08.649Z,101380.05
2017-12-17T13:00:36.119Z,101375.38
2017-12-17T13:03:03.611Z,101377.09
2017-12-17T13:05:31.024Z,101380.48
2017-12-17T13:07:58.458Z,101385.16
2017-12-17T13:10:25.879Z,101385.09
2017-12-17T13:12:53.288Z,101390.00
2017-12-17T13:15:20.812Z,101379.92
2017-12-17T13:17:48.232Z,101381.20
2017-12-17T13:20:15.710Z,101382.66
2017-12-17T13:22:43.132Z,101390.72
2017-12-17T13:25:10.543Z,101390.06
2017-12-17T13:27:37.968Z,101390.66
2017-12-17T13:30:05.450Z,101399.02
2017-12-17T13:32:32.851Z,101397.82
2017-12-17T13:35:00.375Z,101402.84
2017-12-17T13:40:01.665Z,101407.66
2017-12-17T13:42:29.066Z,101407.84
2017-12-17T13:44:56.511Z,101410.70
2017-12-17T13:47:23.997Z,101410.02
2017-12-17T13:49:51.421Z,101417.33
2017-12-17T13:52:18.826Z,101414.86
2017-12-17T13:54:46.258Z,101419.75
2017-12-17T13:57:13.687Z,101419.61
2017-12-17T13:59:41.108Z,101424.91
2017-12-17T14:02:08.562Z,101429.95
2017-12-17T14:04:36.005Z,101428.85
2017-12-17T14:07:03.408Z,101433.97
2017-12-17T14:09:30.945Z,101433.09
2017-12-17T14:11:58.359Z,101446.11
2017-12-17T14:14:25.772Z,101452.33
2017-12-17T14:16:53.412Z,101454.27
2017-12-17T14:19:20.852Z,101457.80
2017-12-17T14:21:48.258Z,101455.38
2017-12-17T14:24:15.708Z,101469.14
2017-12-17T14:26:43.955Z,101464.78
2017-12-17T14:29:11.380Z,101473.41
2017-12-17T14:31:38.815Z,101473.73
2017-12-17T14:34:06.254Z,101482.91
2017-12-17T14:36:33.697Z,101481.84
2017-12-17T14:39:04.904Z,101482.13
2017-12-17T14:41:32.399Z,101490.20
2017-12-17T14:43:59.800Z,101491.48
2017-12-17T14:46:27.247Z,101494.58
2017-12-17T14:48:54.685Z,101490.61
2017-12-17T14:51:22.150Z,101493.97
2017-12-17T14:53:49.687Z,101498.13
2017-12-17T14:56:17.177Z,101503.11
2017-12-17T14:58:44.651Z,101503.53
2017-12-17T15:01:12.175Z,101503.57
2017-12-17T15:03:39.581Z,101513.94
2017-12-17T15:06:07.324Z,101521.19
2017-12-17T15:08:34.788Z,101514.31
2017-12-17T15:11:02.225Z,101523.95
2017-12-17T15:13:29.667Z,101531.01
2017-12-17T15:15:57.091Z,101530.22
2017-12-17T15:18:24.587Z,101532.16
2017-12-17T15:20:52.041Z,101549.56
2017-12-17T15:23:19.481Z,101557.44
2017-12-17T15:25:46.895Z,101545.86
2017-12-17T15:28:14.327Z,101556.43
2017-12-17T15:30:41.772Z,101560.16
2017-12-17T15:33:09.244Z,101556.89
2017-12-17T15:35:36.685Z,101562.14
2017-12-17T15:38:04.095Z,101566.52
2017-12-17T15:40:31.521Z,101560.39
2017-12-17T15:42:58.960Z,101569.19
2017-12-17T15:45:26.388Z,101565.78
2017-12-17T15:47:53.797Z,101575.98
2017-12-17T15:50:21.268Z,101570.92
2017-12-17T15:52:48.799Z,101574.09
2017-12-17T15:55:16.199Z,101575.94
2017-12-17T15:57:43.720Z,101579.59
2017-12-17T16:00:11.130Z,101588.90
2017-12-17T16:02:38.567Z,101590.70
2017-12-17T16:05:06.200Z,101588.90
2017-12-17T16:07:33.655Z,101594.30
2017-12-17T16:10:01.096Z,101596.17
2017-12-17T16:12:28.594Z,101594.69
2017-12-17T16:14:56.006Z,101605.58
2017-12-17T16:17:23.501Z,101614.81
2017-12-17T16:19:51.019Z,101613.45
2017-12-17T16:22:18.383Z,101618.57
2017-12-17T16:24:46.161Z,101620.69
2017-12-17T16:27:13.567Z,101632.08
2017-12-17T16:29:40.988Z,101636.28
2017-12-17T16:32:08.443Z,101630.16
2017-12-17T16:34:35.847Z,101635.17
2017-12-17T16:37:03.255Z,101637.99
2017-12-17T16:39:30.719Z,101641.17
2017-12-17T16:41:58.133Z,101646.00
2017-12-17T16:44:25.551Z,101642.65
2017-12-17T16:46:52.992Z,101644.91
2017-12-17T16:49:20.408Z,101648.73
2017-12-17T16:51:47.814Z,101656.48
2017-12-17T16:54:15.346Z,101653.55
2017-12-17T16:56:42.745Z,101658.11
2017-12-17T16:59:10.169Z,101667.25
2017-12-17T17:01:37.648Z,101668.30
2017-12-17T17:04:05.044Z,101663.69
2017-12-17T17:06:32.536Z,101665.89
2017-12-17T17:09:00.193Z,101665.95
2017-12-17T17:11:27.648Z,101665.16
2017-12-17T17:13:55.119Z,101673.55
2017-12-17T17:16:22.555Z,101676.73
2017-12-17T17:18:50.090Z,101674.72
2017-12-17T17:21:17.450Z,101683.22
2017-12-17T17:23:44.968Z,101678.88
2017-12-17T17:26:12.376Z,101691.75
2017-12-17T17:28:39.788Z,101689.62
2017-12-17T17:31:07.240Z,101691.90
2017-12-17T17:33:34.655Z,101697.98
2017-12-17T17:36:02.140Z,101696.56
2017-12-17T17:38:29.600Z,101705.70
2017-12-17T17:40:57.041Z,101707.77
2017-12-17T17:43:24.439Z,101717.97
2017-12-17T17:45:51.857Z,101711.89
2017-12-17T17:48:19.295Z,101714.00
2017-12-17T17:53:20.506Z,101711.00
2017-12-17T17:55:47.918Z,101720.84
2017-12-17T17:58:15.368Z,101723.06
2017-12-17T18:00:42.781Z,101721.22
2017-12-17T18:03:10.210Z,101718.34
2017-12-17T18:05:37.629Z,101719.67
2017-12-17T18:08:05.052Z,101719.32
2017-12-17T18:10:32.525Z,101712.77
2017-12-17T18:12:59.937Z,101720.27
2017-12-17T18:15:27.382Z,101720.92
2017-12-17T18:17:54.775Z,101717.60
2017-12-17T18:20:22.263Z,101722.31
2017-12-17T18:22:49.686Z,101722.91
2017-12-17T18:25:17.083Z,101722.20
2017-12-17T18:27:44.520Z,101715.84
2017-12-17T18:30:11.968Z,101722.47
2017-12-17T18:32:39.479Z,101720.39
2017-12-17T18:35:06.905Z,101719.70
2017-12-17T18:37:34.315Z,101729.70
2017-12-17T18:40:01.745Z,101721.93
2017-12-17T18:42:29.160Z,101726.03
2017-12-17T18:44:56.675Z,101729.30
2017-12-17T18:47:24.134Z,101729.85
2017-12-17T18:49:51.561Z,101732.47
2017-12-17T18:52:18.965Z,101723.70
2017-12-17T18:54:46.415Z,101737.83
2017-12-17T18:57:13.824Z,101737.69
2017-12-17T18:59:41.232Z,101740.28
2017-12-17T19:02:08.668Z,101741.61
2017-12-17T19:04:36.081Z,101748.42
2017-12-17T19:07:03.605Z,101737.33
2017-12-17T19:09:31.019Z,101742.30
2017-12-17T19:11:58.430Z,101740.54
2017-12-17T19:14:25.879Z,101742.32
2017-12-17T19:16:53.323Z,101746.38
2017-12-17T19:19:20.730Z,101741.40
2017-12-17T19:21:48.237Z,101746.02
2017-12-17T19:24:15.635Z,101748.78
2017-12-17T19:26:43.054Z,101740.34
2017-12-17T19:29:10.501Z,101750.26
2017-12-17T19:31:37.975Z,101755.19
2017-12-17T19:34:05.382Z,101750.23
2017-12-17T19:36:32.810Z,101752.91
2017-12-17T19:39:00.257Z,101755.80
2017-12-17T19:41:27.656Z,101756.53
2017-12-17T19:43:55.079Z,101769.13
2017-12-17T19:46:22.500Z,101761.63
2017-12-17T19:48:49.962Z,101769.40
2017-12-17T19:51:17.369Z,101771.06
2017-12-17T19:53:44.815Z,101771.05
2017-12-17T19:56:12.231Z,101771.16
2017-12-17T19:58:39.628Z,101770.19
2017-12-17T20:01:07.051Z,101773.34
2017-12-17T20:03:34.459Z,101774.31
2017-12-17T20:06:02.269Z,101775.45
2017-12-17T20:08:29.772Z,101774.62
2017-12-17T20:10:57.180Z,101777.06
2017-12-17T20:13:24.760Z,101782.92
2017-12-17T20:15:52.200Z,101780.52
2017-12-17T20:18:19.670Z,101791.59
2017-12-17T20:20:47.417Z,101792.62
2017-12-17T20:23:15.078Z,101792.11
2017-12-17T20:25:42.535Z,101790.66
2017-12-17T20:28:09.943Z,101788.09
2017-12-17T20:30:37.376Z,101795.98
2017-12-17T20:33:04.785Z,101786.20
2017-12-17T20:35:32.195Z,101798.88
2017-12-17T20:37:59.657Z,101797.73
2017-12-17T20:40:27.071Z,101795.23
2017-12-17T20:42:54.483Z,101799.66
2017-12-17T20:45:21.912Z,101797.12
2017-12-17T20:47:49.316Z,101798.66
2017-12-17T20:50:16.740Z,101793.50
2017-12-17T20:52:44.200Z,101804.84
2017-12-17T20:55:11.630Z,101813.05
2017-12-17T20:57:39.035Z,101808.59
2017-12-17T21:00:06.460Z,101813.37
2017-12-17T21:02:33.878Z,101810.16
2017-12-17T21:05:01.304Z,101812.41
2017-12-17T21:07:28.712Z,101818.30
2017-12-17T21:09:56.132Z,101811.39
2017-12-17T21:12:23.546Z,101820.47
2017-12-17T21:14:50.955Z,101821.78
2017-12-17T21:17:18.368Z,101817.50
2017-12-17T21:19:45.811Z,101816.58
2017-12-17T21:22:13.229Z,101819.78
2017-12-17T21:24:40.638Z,101810.00
2017-12-17T21:27:08.067Z,101811.77
2017-12-17T21:29:35.479Z,101813.41
2017-12-17T21:32:02.884Z,101821.55
2017-12-17T21:34:30.328Z,101827.04
2017-12-17T21:36:57.795Z,101826.62
2017-12-17T21:39:25.352Z,101833.73
2017-12-17T21:41:52.760Z,101830.27
2017-12-17T21:44:20.176Z,101831.27
2017-12-17T21:46:47.628Z,101829.44
2017-12-17T21:49:15.035Z,101835.20
2017-12-17T21:51:42.447Z,101838.07
2017-12-17T21:54:09.918Z,101839.19
2017-12-17T21:56:37.331Z,101836.02
2017-12-17T21:59:04.744Z,101835.17
2017-12-17T22:01:32.171Z,101834.84
2017-12-17T22:03:59.572Z,101843.64
2017-12-17T22:06:26.995Z,101842.94
2017-12-17T22:08:54.439Z,101845.37
2017-12-17T22:11:21.852Z,101849.22
2017-12-17T22:13:49.357Z,101851.19
2017-12-17T22:16:16.801Z,101855.62
2017-12-17T22:18:44.253Z,101847.88
2017-12-17T22:21:11.727Z,101849.83
2017-12-17T22:23:39.182Z,101850.25
2017-12-17T22:26:06.593Z,101851.12
2017-12-17T22:28:34.006Z,101853.20
2017-12-17T22:31:01.455Z,101846.91
2017-12-17T22:33:28.871Z,101847.73
2017-12-17T22:35:56.455Z,101847.37
2017-12-17T22:38:23.912Z,101848.91
2017-12-17T22:40:51.376Z,101843.92
2017-12-17T22:43:18.783Z,101841.25
2017-12-17T22:45:46.195Z,101840.83
2017-12-17T22:48:13.601Z,101839.27
2017-12-17T22:50:41.116Z,101831.95
2017-12-17T22:53:08.524Z,101837.75
2017-12-17T22:55:35.931Z,101837.94
2017-12-17T22:58:03.370Z,101831.53
2017-12-17T23:00:30.762Z,101834.73
2017-12-17T23:02:58.235Z,101833.52
2017-12-17T23:05:25.660Z,101836.69
2017-12-17T23:07:53.071Z,101836.60
2017-12-17T23:10:20.483Z,101831.16
2017-12-17T23:12:47.911Z,101835.98
2017-12-17T23:15:15.396Z,101832.05
2017-12-17T23:17:42.917Z,101839.59
2017-12-17T23:20:10.330Z,101838.97
2017-12-17T23:22:37.732Z,101838.53
2017-12-17T23:25:05.170Z,101838.83
2017-12-17T23:27:32.586Z,101839.97
2017-12-17T23:30:00.012Z,101834.54
2017-12-17T23:32:27.499Z,101839.55
2017-12-17T23:34:54.911Z,101830.89
2017-12-17T23:37:22.398Z,101831.86
2017-12-17T23:39:49.870Z,101836.38
2017-12-17T23:42:17.279Z,101836.68
2017-12-17T23:44:44.685Z,101835.06
2017-12-17T23:47:12.102Z,101836.20
2017-12-17T23:49:39.688Z,101836.25
2017-12-17T23:52:07.089Z,101833.13
2017-12-17T23:54:34.523Z,101832.92
2017-12-17T23:57:01.925Z,101832.87
2017-12-17T23:59:29.334Z,101832.44
